createdAt,value
2022-08-01T04:10:30.830Z,99.90
2022-08-01T04:15:32.918Z,99.90
2022-08-01T04:20:34.939Z,99.90
2022-08-01T04:25:40.716Z,99.90
2022-08-01T04:30:45.963Z,99.90
2022-08-01T04:36:02.347Z,99.90
2022-08-01T04:41:09.108Z,99.90
2022-08-01T04:46:13.219Z,99.90
2022-08-01T04:51:22.850Z,99.90
2022-08-01T04:56:24.885Z,99.90
2022-08-01T05:01:26.851Z,99.90
2022-08-01T05:06:28.851Z,99.90
2022-08-01T05:11:31.683Z,99.90
2022-08-01T05:16:33.624Z,99.90
2022-08-01T05:21:36.345Z,99.90
2022-08-01T05:26:38.324Z,99.90
2022-08-01T05:31:40.945Z,99.90
2022-08-01T05:36:44.364Z,99.90
2022-08-01T05:41:46.599Z,99.90
2022-08-01T05:46:48.629Z,99.90
2022-08-01T05:51:50.574Z,99.90
2022-08-01T05:56:52.587Z,99.90
2022-08-01T06:01:54.742Z,99.90
2022-08-01T06:06:56.850Z,99.90
2022-08-01T06:11:59.106Z,99.90
2022-08-01T06:17:01.137Z,99.90
2022-08-01T06:22:03.704Z,99.90
2022-08-01T06:27:06.076Z,99.90
2022-08-01T06:32:26.807Z,99.90
2022-08-01T06:37:33.349Z,99.90
2022-08-01T06:42:38.877Z,99.90
2022-08-01T06:47:43.293Z,99.90
2022-08-01T06:52:45.450Z,99.90
2022-08-01T06:57:53.450Z,99.90
2022-08-01T07:02:59.592Z,99.90
2022-08-01T07:08:02.041Z,99.90
2022-08-01T07:13:03.967Z,99.90
2022-08-01T07:18:05.975Z,99.90
2022-08-01T07:23:08.130Z,99.90
2022-08-01T07:28:10.221Z,99.90
2022-08-01T07:33:12.824Z,99.90
2022-08-01T07:38:17.808Z,99.90
2022-08-01T07:43:19.732Z,99.90
2022-08-01T07:48:24.914Z,99.90
2022-08-01T07:53:27.855Z,99.90
2022-08-01T07:58:30.595Z,99.90
2022-08-01T08:03:32.537Z,99.90
2022-08-01T08:08:35.636Z,99.90
2022-08-01T08:13:37.679Z,99.90
2022-08-01T08:18:39.845Z,99.90
2022-08-01T08:24:00.008Z,99.90
2022-08-01T08:29:01.981Z,99.90
2022-08-01T08:34:04.012Z,99.80
2022-08-01T08:39:06.724Z,99.90
2022-08-01T08:44:11.896Z,92.70
2022-08-01T08:49:22.325Z,93.80
2022-08-01T08:54:31.116Z,90.50
2022-08-01T08:59:39.883Z,89.40
2022-08-01T09:04:42.510Z,81.20
2022-08-01T09:09:44.660Z,83.70
2022-08-01T09:14:51.003Z,78.00
2022-08-01T09:19:57.750Z,79.40
2022-08-01T09:25:07.025Z,70.40
2022-08-01T09:30:13.227Z,61.70
2022-08-01T09:35:43.408Z,56.50
2022-08-01T09:40:58.069Z,60.10
2022-08-01T09:46:06.415Z,58.60
2022-08-01T09:52:00.190Z,67.30
2022-08-01T09:57:18.356Z,71.60
2022-08-01T10:02:31.447Z,81.90
2022-08-01T10:07:43.587Z,85.30
2022-08-01T10:12:47.734Z,91.80
2022-08-01T10:18:00.338Z,59.30
2022-08-01T10:23:06.386Z,55.90
2022-08-01T10:28:23.893Z,51.40
2022-08-01T10:33:51.865Z,56.30
2022-08-01T10:38:48.589Z,61.40
2022-08-01T10:43:50.671Z,72.60
2022-08-01T10:49:03.512Z,76.40
2022-08-01T10:54:09.755Z,81.20
2022-08-01T10:59:58.939Z,58.00
2022-08-01T11:05:20.755Z,58.90
2022-08-01T11:10:38.334Z,50.40
2022-08-01T11:15:50.572Z,52.10
2022-08-01T11:21:59.190Z,48.90
2022-08-01T11:26:30.111Z,50.60
2022-08-01T11:31:37.934Z,54.10
2022-08-01T11:36:58.395Z,55.90
2022-08-01T11:42:21.391Z,59.70
2022-08-01T11:47:50.335Z,63.20
2022-08-01T11:53:06.668Z,65.80
2022-08-01T11:58:22.429Z,67.60
2022-08-01T12:03:34.151Z,68.00
2022-08-01T12:08:37.590Z,73.30
2022-08-01T12:13:42.868Z,73.20
2022-08-01T12:18:45.246Z,64.70
2022-08-01T12:24:01.369Z,57.60
2022-08-01T12:29:03.544Z,56.90
2022-08-01T12:34:31.558Z,49.70
2022-08-01T12:39:34.926Z,51.70
2022-08-01T12:44:37.801Z,53.70
2022-08-01T12:49:42.523Z,55.50
2022-08-01T12:55:11.651Z,56.90
2022-08-01T13:00:24.938Z,56.20
2022-08-01T13:05:27.883Z,54.30
2022-08-01T13:10:31.822Z,53.20
2022-08-01T13:15:41.899Z,45.40
2022-08-01T13:20:44.391Z,45.90
2022-08-01T13:25:57.169Z,44.60
2022-08-01T13:31:08.963Z,43.10
2022-08-01T13:36:12.412Z,41.30
2022-08-01T13:41:24.676Z,38.20
2022-08-01T13:46:30.268Z,41.90
2022-08-01T13:51:33.459Z,43.80
2022-08-01T13:56:35.898Z,46.10
2022-08-01T14:01:38.858Z,42.60
2022-08-01T14:06:42.017Z,43.20
2022-08-01T14:11:45.925Z,43.30
2022-08-01T14:16:48.766Z,40.90
2022-08-01T14:21:53.627Z,39.50
2022-08-01T14:26:56.584Z,40.70
2022-08-01T14:31:59.963Z,39.30
2022-08-01T14:37:06.616Z,41.60
2022-08-01T14:42:10.398Z,37.80
2022-08-01T14:47:16.107Z,37.10
2022-08-01T14:52:28.094Z,34.90
2022-08-01T14:57:37.829Z,34.40
2022-08-01T15:02:40.897Z,36.60
2022-08-01T15:07:52.224Z,41.00
2022-08-01T15:12:56.723Z,42.10
2022-08-01T15:17:59.374Z,38.80
2022-08-01T15:23:01.782Z,41.60
2022-08-01T15:28:04.467Z,42.40
2022-08-01T15:33:07.305Z,43.30
2022-08-01T15:38:09.579Z,41.70
2022-08-01T15:43:15.125Z,39.90
2022-08-01T15:48:18.387Z,38.90
2022-08-01T15:53:20.641Z,38.40
2022-08-01T15:58:23.451Z,37.90
2022-08-01T16:03:25.742Z,40.10
2022-08-01T16:08:27.897Z,42.40
2022-08-01T16:13:30.135Z,43.10
2022-08-01T16:18:32.316Z,41.30
2022-08-01T16:23:34.510Z,41.80
2022-08-01T16:28:37.495Z,43.40
2022-08-01T16:33:41.327Z,44.50
2022-08-01T16:38:56.602Z,44.70
2022-08-01T16:44:01.998Z,44.40
2022-08-01T16:50:28.022Z,44.80
2022-08-01T16:55:49.670Z,46.80
2022-08-01T17:00:56.289Z,47.70
2022-08-01T17:05:59.320Z,48.80
2022-08-01T17:11:01.575Z,49.00
2022-08-01T17:16:12.458Z,50.20
2022-08-01T17:21:15.129Z,49.60
2022-08-01T17:26:17.401Z,49.60
2022-08-01T17:31:19.789Z,50.40
2022-08-01T17:36:22.290Z,50.50
2022-08-01T17:41:24.557Z,49.60
2022-08-01T17:46:26.946Z,50.70
2022-08-01T17:51:30.524Z,51.70
2022-08-01T17:56:37.933Z,53.00
2022-08-01T18:01:45.285Z,54.90
2022-08-01T18:06:58.446Z,56.00
2022-08-01T18:12:03.407Z,57.30
2022-08-01T18:17:06.951Z,59.10
2022-08-01T18:22:28.810Z,59.80
2022-08-01T18:28:25.815Z,62.30
2022-08-01T18:32:57.778Z,64.70
2022-08-01T18:38:00.126Z,70.10
2022-08-01T18:43:04.393Z,74.60
2022-08-01T18:48:06.870Z,77.50
2022-08-01T18:53:09.144Z,82.10
2022-08-01T18:58:11.366Z,87.90
2022-08-01T19:03:15.437Z,91.20
2022-08-01T19:08:17.626Z,93.10
2022-08-01T19:13:20.707Z,95.80
2022-08-01T19:18:24.674Z,97.10
2022-08-01T19:23:45.840Z,98.70
2022-08-01T19:29:01.143Z,99.90
2022-08-01T19:34:07.728Z,99.90
2022-08-01T19:39:10.272Z,99.90
2022-08-01T19:44:16.560Z,99.90
2022-08-01T19:49:24.186Z,99.90
2022-08-01T19:54:33.652Z,99.90
2022-08-01T19:59:36.866Z,99.90
2022-08-01T20:04:38.801Z,99.90
2022-08-01T20:09:42.373Z,99.90
2022-08-01T20:14:44.913Z,99.90
2022-08-01T20:19:48.035Z,99.90
2022-08-01T20:24:58.253Z,99.90
